createdAt,value
2023-02-08T00:01:56.476Z,0.55
2023-02-08T00:04:24.854Z,0.51
2023-02-08T00:06:55.495Z,0.46
2023-02-08T00:09:25.302Z,0.42
2023-02-08T00:11:53.885Z,0.40
2023-02-08T00:14:22.465Z,0.35
2023-02-08T00:16:50.780Z,0.32
2023-02-08T00:19:19.229Z,0.28
2023-02-08T00:21:47.603Z,0.26
2023-02-08T00:24:15.983Z,0.26
2023-02-08T00:26:44.871Z,0.27
2023-02-08T00:29:13.072Z,0.26
2023-02-08T00:31:42.003Z,0.26
2023-02-08T00:34:10.305Z,0.25
2023-02-08T00:36:38.890Z,0.23
2023-02-08T00:39:08.697Z,0.22
2023-02-08T00:41:37.313Z,0.19
2023-02-08T00:44:06.271Z,0.18
2023-02-08T00:46:35.590Z,0.18
2023-02-08T00:49:04.265Z,0.18
2023-02-08T00:51:32.756Z,0.17
2023-02-08T00:54:01.729Z,0.16
2023-02-08T00:56:30.468Z,0.16
2023-02-08T00:59:00.955Z,0.15
2023-02-08T01:01:29.529Z,0.13
2023-02-08T01:03:58.319Z,0.10
2023-02-08T01:09:52.415Z,0.11
2023-02-08T01:12:20.907Z,0.11
2023-02-08T01:14:49.380Z,0.09
2023-02-08T01:17:18.572Z,0.08
2023-02-08T01:19:46.962Z,0.06
2023-02-08T01:22:15.745Z,0.05
2023-02-08T01:24:44.218Z,0.05
2023-02-08T01:27:12.496Z,0.06
2023-02-08T01:29:41.110Z,0.07
2023-02-08T01:32:09.457Z,0.06
2023-02-08T01:34:38.387Z,0.05
2023-02-08T01:37:06.938Z,0.04
2023-02-08T01:39:35.334Z,0.03
2023-02-08T01:42:05.012Z,0.00
2023-02-08T01:45:11.278Z,0.00
2023-02-08T01:47:39.761Z,0.00
2023-02-08T01:50:08.146Z,-0.01
2023-02-08T01:52:37.027Z,0.01
2023-02-08T01:55:09.589Z,0.04
2023-02-08T01:57:37.984Z,0.02
2023-02-08T02:00:09.368Z,-0.01
2023-02-08T02:02:44.771Z,-0.03
2023-02-08T02:05:12.948Z,-0.04
2023-02-08T02:07:43.270Z,-0.03
2023-02-08T02:10:26.306Z,-0.02
2023-02-08T02:12:55.732Z,-0.02
2023-02-08T02:15:24.179Z,0.00
2023-02-08T02:17:53.274Z,0.01
2023-02-08T02:20:50.626Z,0.02
2023-02-08T02:23:55.447Z,0.03
2023-02-08T02:26:28.954Z,0.02
2023-02-08T02:29:22.656Z,0.01
2023-02-08T02:32:13.122Z,0.01
2023-02-08T02:34:58.090Z,-0.01
2023-02-08T02:37:30.766Z,-0.01
2023-02-08T02:40:33.961Z,0.00
2023-02-08T02:43:36.949Z,0.01
2023-02-08T02:46:21.201Z,0.02
2023-02-08T02:49:07.910Z,0.05
2023-02-08T02:51:49.808Z,0.05
2023-02-08T02:54:23.938Z,0.05
2023-02-08T02:56:53.943Z,0.05
2023-02-08T02:59:22.435Z,0.06
2023-02-08T03:01:50.898Z,0.06
2023-02-08T03:04:32.773Z,0.05
2023-02-08T03:07:20.042Z,0.03
2023-02-08T03:10:27.405Z,0.03
2023-02-08T03:13:26.199Z,0.05
2023-02-08T03:16:18.278Z,0.05
2023-02-08T03:18:55.623Z,0.07
2023-02-08T03:21:36.700Z,0.12
2023-02-08T03:24:11.293Z,0.12
2023-02-08T03:27:00.793Z,0.13
2023-02-08T03:29:44.326Z,0.12
2023-02-08T03:32:52.248Z,0.10
2023-02-08T03:35:24.279Z,0.10
2023-02-08T03:38:17.966Z,0.11
2023-02-08T03:40:48.190Z,0.13
2023-02-08T03:43:32.236Z,0.15
2023-02-08T03:46:11.102Z,0.17
2023-02-08T03:48:41.929Z,0.19
2023-02-08T03:51:10.681Z,0.20
2023-02-08T03:53:40.796Z,0.21
2023-02-08T03:56:13.687Z,0.21
2023-02-08T03:58:50.188Z,0.22
2023-02-08T04:01:40.468Z,0.23
2023-02-08T04:04:09.019Z,0.23
2023-02-08T04:06:37.707Z,0.24
2023-02-08T04:09:06.390Z,0.23
2023-02-08T04:11:36.917Z,0.23
2023-02-08T04:14:05.713Z,0.23
2023-02-08T04:16:33.983Z,0.24
2023-02-08T04:19:03.095Z,0.24
2023-02-08T04:21:31.875Z,0.24
2023-02-08T04:24:01.365Z,0.23
2023-02-08T04:26:29.956Z,0.23
2023-02-08T04:28:58.600Z,0.22
2023-02-08T04:31:27.062Z,0.22
2023-02-08T04:33:55.704Z,0.21
2023-02-08T04:36:24.283Z,0.21
2023-02-08T04:38:52.868Z,0.22
2023-02-08T04:41:21.155Z,0.23
2023-02-08T04:43:49.647Z,0.23
2023-02-08T04:46:18.803Z,0.23
2023-02-08T04:48:47.506Z,0.23
2023-02-08T04:51:15.885Z,0.23
2023-02-08T04:53:45.011Z,0.22
2023-02-08T04:56:14.792Z,0.23
2023-02-08T04:58:43.487Z,0.23
2023-02-08T05:01:11.974Z,0.23
2023-02-08T05:03:40.364Z,0.23
2023-02-08T05:06:09.018Z,0.22
2023-02-08T05:08:37.269Z,0.21
2023-02-08T05:11:06.182Z,0.19
2023-02-08T05:13:34.869Z,0.18
2023-02-08T05:16:03.394Z,0.17
2023-02-08T05:18:32.340Z,0.17
2023-02-08T05:21:00.984Z,0.15
2023-02-08T05:23:29.814Z,0.15
2023-02-08T05:25:58.291Z,0.14
2023-02-08T05:28:26.746Z,0.12
2023-02-08T05:30:55.268Z,0.11
2023-02-08T05:33:23.766Z,0.10
2023-02-08T05:35:52.519Z,0.08
2023-02-08T05:38:21.039Z,0.08
2023-02-08T05:40:49.327Z,0.08
2023-02-08T05:43:17.662Z,0.07
2023-02-08T05:45:45.925Z,0.07
2023-02-08T05:48:14.612Z,0.07
2023-02-08T05:50:43.406Z,0.08
2023-02-08T05:53:12.184Z,0.08
2023-02-08T05:55:40.777Z,0.09
2023-02-08T05:58:09.162Z,0.09
2023-02-08T06:00:38.155Z,0.09
2023-02-08T06:03:06.873Z,0.09
2023-02-08T06:05:37.979Z,0.08
2023-02-08T06:08:06.342Z,0.09
2023-02-08T06:10:37.494Z,0.11
2023-02-08T06:13:05.966Z,0.11
2023-02-08T06:15:34.958Z,0.13
2023-02-08T06:18:03.850Z,0.14
2023-02-08T06:20:32.638Z,0.14
2023-02-08T06:23:01.935Z,0.14
2023-02-08T06:25:30.420Z,0.17
2023-02-08T06:27:59.044Z,0.19
2023-02-08T06:30:27.583Z,0.19
2023-02-08T06:32:56.337Z,0.21
2023-02-08T06:35:24.754Z,0.22
2023-02-08T06:37:54.558Z,0.22
2023-02-08T06:40:23.040Z,0.23
2023-02-08T06:42:52.341Z,0.23
2023-02-08T06:45:20.922Z,0.24
2023-02-08T06:47:49.507Z,0.26
2023-02-08T06:50:18.090Z,0.28
2023-02-08T06:52:47.969Z,0.31
2023-02-08T06:55:16.278Z,0.33
2023-02-08T06:57:44.860Z,0.35
2023-02-08T07:00:14.261Z,0.36
2023-02-08T07:02:42.661Z,0.37
2023-02-08T07:05:11.119Z,0.39
2023-02-08T07:07:41.342Z,0.43
2023-02-08T07:10:09.924Z,0.47
2023-02-08T07:12:39.123Z,0.51
2023-02-08T07:15:08.625Z,0.54
2023-02-08T07:17:37.139Z,0.55
2023-02-08T07:20:06.304Z,0.57
2023-02-08T07:22:35.401Z,0.59
2023-02-08T07:25:04.701Z,0.60
2023-02-08T07:27:33.078Z,0.57
2023-02-08T07:30:01.593Z,0.59
2023-02-08T07:32:30.043Z,0.61
2023-02-08T07:34:58.929Z,0.66
2023-02-08T07:37:27.307Z,0.69
2023-02-08T07:39:56.827Z,0.71
2023-02-08T07:42:25.050Z,0.72
2023-02-08T07:44:56.639Z,0.73
2023-02-08T07:47:25.123Z,0.75
2023-02-08T07:49:53.741Z,0.76
2023-02-08T07:52:22.082Z,0.76
2023-02-08T07:54:50.973Z,0.77
2023-02-08T07:57:22.132Z,0.79
2023-02-08T07:59:51.611Z,0.81
2023-02-08T08:02:21.567Z,0.84
2023-02-08T08:04:50.016Z,0.90
2023-02-08T08:07:18.805Z,0.96
2023-02-08T08:09:47.700Z,1.02
2023-02-08T08:12:16.071Z,1.08
2023-02-08T08:14:44.591Z,1.16
2023-02-08T08:17:13.343Z,1.23
2023-02-08T08:19:42.434Z,1.31
2023-02-08T08:22:10.917Z,1.36
2023-02-08T08:24:39.395Z,1.42
2023-02-08T08:27:08.183Z,1.48
2023-02-08T08:29:38.508Z,1.53
2023-02-08T08:32:09.261Z,1.54
2023-02-08T08:34:38.851Z,1.52
2023-02-08T08:37:07.326Z,1.50
2023-02-08T08:39:37.443Z,1.52
2023-02-08T08:42:06.238Z,1.54
2023-02-08T08:44:34.919Z,1.56
2023-02-08T08:47:03.605Z,1.60
2023-02-08T08:49:31.887Z,1.64
2023-02-08T08:52:00.981Z,1.69
2023-02-08T08:54:29.678Z,1.72
2023-02-08T08:56:58.445Z,1.73
2023-02-08T08:59:27.239Z,1.75
2023-02-08T09:01:56.154Z,1.79
2023-02-08T09:04:24.832Z,1.82
2023-02-08T09:06:53.592Z,1.86
2023-02-08T09:09:22.102Z,1.93
2023-02-08T09:11:50.659Z,1.99
2023-02-08T09:14:19.169Z,2.05
2023-02-08T09:16:48.241Z,2.08
2023-02-08T09:19:16.623Z,2.10
2023-02-08T09:21:45.027Z,2.17
2023-02-08T09:24:13.667Z,2.22
2023-02-08T09:26:41.944Z,2.27
2023-02-08T09:29:10.143Z,2.30
2023-02-08T09:31:39.800Z,2.29
2023-02-08T09:34:09.535Z,2.27
2023-02-08T09:36:39.768Z,2.25
2023-02-08T09:39:11.208Z,2.25
2023-02-08T09:41:43.172Z,2.30
2023-02-08T09:44:33.474Z,2.36
2023-02-08T09:47:10.648Z,2.41
2023-02-08T09:49:47.220Z,2.46
2023-02-08T09:52:17.033Z,2.51
2023-02-08T09:54:49.473Z,2.54
2023-02-08T09:57:20.647Z,2.57
2023-02-08T09:59:54.632Z,2.62
2023-02-08T10:02:22.935Z,2.67
2023-02-08T10:04:57.664Z,2.72
2023-02-08T10:07:27.071Z,2.77
2023-02-08T10:09:56.978Z,2.78
2023-02-08T10:12:38.817Z,2.82
2023-02-08T10:15:22.203Z,2.89
2023-02-08T10:18:19.203Z,2.93
2023-02-08T10:20:54.489Z,2.98
2023-02-08T10:23:55.840Z,3.00
2023-02-08T10:26:39.808Z,3.01
2023-02-08T10:29:30.003Z,3.02
2023-02-08T10:32:35.834Z,3.00
2023-02-08T10:35:10.861Z,3.02
2023-02-08T10:37:41.902Z,3.04
2023-02-08T10:40:19.089Z,3.05
2023-02-08T10:43:19.927Z,3.06
2023-02-08T10:46:15.970Z,3.12
2023-02-08T10:48:47.347Z,3.18
2023-02-08T10:51:21.440Z,3.25
2023-02-08T10:53:50.609Z,3.30
2023-02-08T10:56:28.341Z,3.35
2023-02-08T10:58:58.029Z,3.41
2023-02-08T11:01:26.714Z,3.44
2023-02-08T11:04:21.463Z,3.46
2023-02-08T11:06:51.555Z,3.52
2023-02-08T11:09:23.782Z,3.58
2023-02-08T11:11:56.942Z,3.62
2023-02-08T11:14:35.078Z,3.64
2023-02-08T11:17:30.896Z,3.67
2023-02-08T11:19:59.889Z,3.73
2023-02-08T11:22:31.353Z,3.77
2023-02-08T11:25:05.653Z,3.83
2023-02-08T11:27:45.713Z,3.88
2023-02-08T11:30:14.087Z,3.91
2023-02-08T11:32:44.005Z,3.93
2023-02-08T11:35:12.382Z,3.96
2023-02-08T11:37:40.765Z,3.98
2023-02-08T11:40:18.235Z,4.02
2023-02-08T11:42:47.452Z,4.05
2023-02-08T11:45:33.649Z,4.08
2023-02-08T11:48:02.038Z,4.15
2023-02-08T11:50:37.972Z,4.20
2023-02-08T11:53:08.505Z,4.25
2023-02-08T11:55:38.221Z,4.32
2023-02-08T11:58:13.158Z,4.38
2023-02-08T12:00:42.962Z,4.42
2023-02-08T12:03:19.254Z,4.43
2023-02-08T12:06:26.309Z,4.44
2023-02-08T12:09:20.187Z,4.45
2023-02-08T12:11:55.453Z,4.47
2023-02-08T12:14:46.125Z,4.48
2023-02-08T12:17:26.403Z,4.50
2023-02-08T12:20:18.127Z,4.51
2023-02-08T12:22:59.403Z,4.54
2023-02-08T12:25:31.252Z,4.56
2023-02-08T12:28:20.979Z,4.56
2023-02-08T12:31:29.429Z,4.55
2023-02-08T12:34:19.338Z,4.57
2023-02-08T12:37:19.469Z,4.55
2023-02-08T12:40:09.625Z,4.57
2023-02-08T12:42:42.622Z,4.60
2023-02-08T12:45:35.955Z,4.62
2023-02-08T12:48:16.650Z,4.65
2023-02-08T12:51:08.435Z,4.68
2023-02-08T12:53:45.858Z,4.68
2023-02-08T12:56:17.318Z,4.67
2023-02-08T12:58:49.667Z,4.67
2023-02-08T13:01:31.164Z,4.68
2023-02-08T13:04:08.171Z,4.70
2023-02-08T13:06:45.262Z,4.73
2023-02-08T13:09:45.037Z,4.73
2023-02-08T13:12:27.660Z,4.72
2023-02-08T13:15:30.471Z,4.70
2023-02-08T13:18:10.267Z,4.68
2023-02-08T13:20:48.382Z,4.69
2023-02-08T13:23:21.295Z,4.71
2023-02-08T13:25:51.200Z,4.74
2023-02-08T13:28:23.178Z,4.76
2023-02-08T13:30:58.479Z,4.76
2023-02-08T13:34:00.978Z,4.77
2023-02-08T13:36:37.398Z,4.76
2023-02-08T13:39:07.872Z,4.76
2023-02-08T13:41:37.683Z,4.76
2023-02-08T13:44:17.026Z,4.77
2023-02-08T13:46:49.731Z,4.73
2023-02-08T13:49:49.440Z,4.69
2023-02-08T13:52:46.378Z,4.68
2023-02-08T13:55:36.307Z,4.66
2023-02-08T13:58:14.046Z,4.62
2023-02-08T14:01:11.813Z,4.59
2023-02-08T14:03:40.396Z,4.56
2023-02-08T14:06:25.690Z,4.55
2023-02-08T14:09:13.400Z,4.55
2023-02-08T14:12:34.923Z,4.54
2023-02-08T14:15:16.103Z,4.53
2023-02-08T14:17:45.715Z,4.51
2023-02-08T14:20:22.201Z,4.48
2023-02-08T14:22:58.253Z,4.45
2023-02-08T14:25:30.192Z,4.42
2023-02-08T14:27:59.404Z,4.38
2023-02-08T14:30:30.956Z,4.34
2023-02-08T14:33:07.544Z,4.30
2023-02-08T14:35:38.046Z,4.27
2023-02-08T14:38:24.591Z,4.25
2023-02-08T14:40:58.153Z,4.20
2023-02-08T14:43:30.931Z,4.17
2023-02-08T14:46:38.226Z,4.14
2023-02-08T14:49:17.175Z,4.11
2023-02-08T14:51:59.435Z,4.07
2023-02-08T14:55:02.153Z,4.00
2023-02-08T14:57:35.630Z,4.02
2023-02-08T15:00:16.294Z,4.01
2023-02-08T15:02:45.517Z,3.97
2023-02-08T15:05:31.790Z,3.95
2023-02-08T15:08:01.004Z,3.91
2023-02-08T15:10:30.567Z,3.87
2023-02-08T15:13:21.218Z,3.83
2023-02-08T15:15:52.771Z,3.72
2023-02-08T15:18:31.787Z,3.49
2023-02-08T15:21:07.322Z,3.63
2023-02-08T15:23:35.696Z,3.65
2023-02-08T15:26:06.030Z,3.63
2023-02-08T15:28:35.840Z,3.60
2023-02-08T15:31:09.525Z,3.57
2023-02-08T15:33:43.857Z,3.54
2023-02-08T15:36:31.909Z,3.56
2023-02-08T15:39:10.089Z,3.59
2023-02-08T15:41:38.685Z,3.60
2023-02-08T15:44:30.174Z,3.59
2023-02-08T15:47:04.738Z,3.59
2023-02-08T15:49:41.712Z,3.57
2023-02-08T15:52:15.333Z,3.56
2023-02-08T15:54:44.271Z,3.54
2023-02-08T15:57:31.414Z,3.51
2023-02-08T16:00:00.219Z,3.48
2023-02-08T16:02:31.155Z,3.46
2023-02-08T16:05:00.359Z,3.43
2023-02-08T16:07:32.904Z,3.41
2023-02-08T16:10:01.306Z,3.38
2023-02-08T16:12:30.521Z,3.36
2023-02-08T16:14:59.899Z,3.34
2023-02-08T16:17:32.571Z,3.31
2023-02-08T16:20:01.050Z,3.29
2023-02-08T16:22:32.811Z,3.27
2023-02-08T16:25:30.971Z,3.26
2023-02-08T16:27:59.201Z,3.23
2023-02-08T16:30:27.882Z,3.22
2023-02-08T16:32:56.664Z,3.19
2023-02-08T16:35:29.611Z,3.16
2023-02-08T16:38:00.786Z,3.15
2023-02-08T16:40:51.707Z,3.13
2023-02-08T16:43:32.133Z,3.11
2023-02-08T16:46:10.091Z,3.08
2023-02-08T16:48:41.994Z,3.05
2023-02-08T16:51:18.368Z,3.03
2023-02-08T16:53:47.869Z,3.01
2023-02-08T16:56:16.449Z,3.00
2023-02-08T16:58:45.353Z,2.97
2023-02-08T17:01:14.491Z,2.96
2023-02-08T17:03:43.035Z,2.94
2023-02-08T17:06:28.702Z,2.91
2023-02-08T17:08:58.413Z,2.88
2023-02-08T17:11:27.740Z,2.85
2023-02-08T17:13:56.295Z,2.84
2023-02-08T17:16:26.571Z,2.81
2023-02-08T17:18:54.695Z,2.79
2023-02-08T17:21:23.181Z,2.77
2023-02-08T17:23:51.469Z,2.73
2023-02-08T17:26:23.308Z,2.68
2023-02-08T17:28:51.992Z,2.64
2023-02-08T17:31:20.598Z,2.59
2023-02-08T17:33:50.357Z,2.56
2023-02-08T17:36:19.073Z,2.53
2023-02-08T17:38:47.577Z,2.50
2023-02-08T17:41:17.665Z,2.48
2023-02-08T17:43:46.761Z,2.46
2023-02-08T17:46:20.376Z,2.44
2023-02-08T17:48:48.670Z,2.39
2023-02-08T17:51:21.726Z,2.37
2023-02-08T17:53:50.310Z,2.33
2023-02-08T17:56:20.610Z,2.30
2023-02-08T17:58:51.497Z,2.27
2023-02-08T18:01:24.912Z,2.24
2023-02-08T18:03:53.654Z,2.22
2023-02-08T18:06:23.970Z,2.21
2023-02-08T18:08:53.577Z,2.19
2023-02-08T18:11:23.698Z,2.15
2023-02-08T18:13:53.199Z,2.13
2023-02-08T18:16:23.721Z,2.11
2023-02-08T18:18:57.538Z,2.08
2023-02-08T18:21:26.023Z,2.06
2023-02-08T18:23:55.723Z,2.04
2023-02-08T18:26:25.188Z,2.01
2023-02-08T18:28:53.507Z,1.97
2023-02-08T18:31:22.272Z,1.94
2023-02-08T18:33:51.302Z,1.89
2023-02-08T18:36:20.817Z,1.87
2023-02-08T18:38:51.935Z,1.84
2023-02-08T18:41:22.859Z,1.81
2023-02-08T18:43:51.859Z,1.76
2023-02-08T18:46:21.305Z,1.72
2023-02-08T18:48:51.084Z,1.70
2023-02-08T18:51:20.051Z,1.66
2023-02-08T18:53:51.131Z,1.63
2023-02-08T18:56:23.170Z,1.61
2023-02-08T18:58:53.123Z,1.60
2023-02-08T19:01:22.699Z,1.57
2023-02-08T19:03:52.080Z,1.55
2023-02-08T19:06:25.195Z,1.53
2023-02-08T19:08:56.045Z,1.50
2023-02-08T19:11:32.486Z,1.47
2023-02-08T19:14:02.212Z,1.45
2023-02-08T19:16:31.185Z,1.44
2023-02-08T19:19:04.273Z,1.41
2023-02-08T19:21:33.641Z,1.41
2023-02-08T19:24:02.462Z,1.39
2023-02-08T19:26:37.082Z,1.37
2023-02-08T19:29:07.954Z,1.32
2023-02-08T19:31:38.310Z,1.30
2023-02-08T19:34:10.109Z,1.30
2023-02-08T19:36:42.674Z,1.30
2023-02-08T19:39:17.637Z,1.28
2023-02-08T19:41:46.437Z,1.27
2023-02-08T19:44:16.839Z,1.25
2023-02-08T19:46:55.277Z,1.23
2023-02-08T19:49:26.029Z,1.21
2023-02-08T19:51:55.002Z,1.19
2023-02-08T19:54:23.363Z,1.17
2023-02-08T19:56:54.920Z,1.15
2023-02-08T19:59:26.498Z,1.12
2023-02-08T20:01:55.344Z,1.09
2023-02-08T20:04:23.852Z,1.06
2023-02-08T20:06:53.254Z,1.02
2023-02-08T20:09:24.175Z,0.97
2023-02-08T20:12:00.113Z,0.94
2023-02-08T20:14:33.028Z,0.92
2023-02-08T20:17:02.534Z,0.88
2023-02-08T20:19:31.310Z,0.86
2023-02-08T20:21:59.880Z,0.83
2023-02-08T20:24:28.687Z,0.83
2023-02-08T20:26:57.969Z,0.82
2023-02-08T20:29:28.148Z,0.80
2023-02-08T20:31:57.765Z,0.80
2023-02-08T20:34:28.117Z,0.78
2023-02-08T20:37:11.892Z,0.74
2023-02-08T20:39:40.537Z,0.69
2023-02-08T20:42:10.246Z,0.67
2023-02-08T20:44:38.733Z,0.65
2023-02-08T20:47:09.257Z,0.62
2023-02-08T20:49:42.242Z,0.60
2023-02-08T20:52:10.630Z,0.57
2023-02-08T20:54:39.334Z,0.54
2023-02-08T20:57:11.153Z,0.49
2023-02-08T20:59:39.471Z,0.48
2023-02-08T21:02:09.010Z,0.43
2023-02-08T21:04:37.432Z,0.40
2023-02-08T21:07:05.813Z,0.38
2023-02-08T21:09:34.291Z,0.36
2023-02-08T21:12:04.843Z,0.32
2023-02-08T21:14:33.401Z,0.31
2023-02-08T21:17:05.801Z,0.29
2023-02-08T21:19:35.587Z,0.28
2023-02-08T21:22:04.479Z,0.26
2023-02-08T21:24:32.748Z,0.25
2023-02-08T21:27:01.321Z,0.23
2023-02-08T21:29:29.782Z,0.21
2023-02-08T21:31:58.961Z,0.18
2023-02-08T21:34:27.622Z,0.16
2023-02-08T21:36:56.101Z,0.14
2023-02-08T21:39:24.860Z,0.10
2023-02-08T21:41:53.439Z,0.06
2023-02-08T21:44:23.046Z,0.06
2023-02-08T21:46:51.736Z,0.04
2023-02-08T21:49:38.646Z,0.02
2023-02-08T21:52:25.455Z,0.02
2023-02-08T21:54:54.242Z,0.01
2023-02-08T21:57:25.992Z,-0.02
2023-02-08T21:59:56.984Z,-0.05
2023-02-08T22:02:27.985Z,-0.08
2023-02-08T22:05:16.798Z,-0.10
2023-02-08T22:07:47.139Z,-0.13
2023-02-08T22:10:16.976Z,-0.16
2023-02-08T22:12:47.471Z,-0.19
2023-02-08T22:15:18.539Z,-0.21
2023-02-08T22:17:46.815Z,-0.23
2023-02-08T22:20:16.134Z,-0.27
2023-02-08T22:22:46.436Z,-0.29
2023-02-08T22:25:15.225Z,-0.31
2023-02-08T22:27:44.631Z,-0.31
2023-02-08T22:30:14.952Z,-0.33
2023-02-08T22:32:44.354Z,-0.33
2023-02-08T22:35:14.170Z,-0.33
2023-02-08T22:37:43.578Z,-0.34
2023-02-08T22:40:13.108Z,-0.36
2023-02-08T22:42:42.304Z,-0.37
2023-02-08T22:45:10.978Z,-0.36
2023-02-08T22:47:39.748Z,-0.37
2023-02-08T22:50:09.266Z,-0.39
2023-02-08T22:52:37.944Z,-0.40
2023-02-08T22:55:06.663Z,-0.43
2023-02-08T22:57:35.339Z,-0.45
2023-02-08T23:00:07.213Z,-0.45
2023-02-08T23:02:35.907Z,-0.46
2023-02-08T23:05:04.576Z,-0.49
2023-02-08T23:07:33.328Z,-0.52
2023-02-08T23:10:06.018Z,-0.56
2023-02-08T23:12:34.995Z,-0.59
2023-02-08T23:15:04.296Z,-0.60
2023-02-08T23:17:32.881Z,-0.63
2023-02-08T23:20:01.393Z,-0.64
2023-02-08T23:22:30.658Z,-0.66
2023-02-08T23:24:59.240Z,-0.68
2023-02-08T23:27:28.024Z,-0.70
2023-02-08T23:29:56.400Z,-0.73
2023-02-08T23:32:25.190Z,-0.75
2023-02-08T23:34:53.362Z,-0.77
2023-02-08T23:37:21.668Z,-0.77
2023-02-08T23:39:50.118Z,-0.78
2023-02-08T23:42:27.513Z,-0.80
2023-02-08T23:44:56.910Z,-0.82
2023-02-08T23:47:26.930Z,-0.83
2023-02-08T23:49:55.136Z,-0.84
2023-02-08T23:52:23.995Z,-0.85
2023-02-08T23:54:52.576Z,-0.87
2023-02-08T23:57:20.969Z,-0.89
2023-02-08T23:59:49.564Z,-0.91
